createdAt,value
2024-01-03T00:00:01.549Z,94682.16
2024-01-03T00:02:30.344Z,94685.06
2024-01-03T00:04:57.328Z,94698.41
2024-01-03T00:07:24.481Z,94696.50
2024-01-03T00:09:55.292Z,94684.84
2024-01-03T00:12:23.182Z,94684.84
2024-01-03T00:14:50.354Z,94687.97
2024-01-03T00:17:18.234Z,94687.06
2024-01-03T00:19:55.139Z,94692.75
2024-01-03T00:22:29.261Z,94697.31
2024-01-03T00:25:00.673Z,94700.13
2024-01-03T00:27:27.974Z,94692.16
2024-01-03T00:30:05.831Z,94700.94
2024-01-03T00:32:36.451Z,94702.22
2024-01-03T00:35:10.720Z,94703.53
2024-01-03T00:37:37.991Z,94687.22
2024-01-03T00:40:11.984Z,94691.47
2024-01-03T00:42:39.098Z,94693.44
2024-01-03T00:45:07.549Z,94688.19
2024-01-03T00:47:34.933Z,94682.47
2024-01-03T00:50:02.319Z,94680.91
2024-01-03T00:52:30.908Z,94678.03
2024-01-03T00:54:58.042Z,94671.22
2024-01-03T00:57:25.298Z,94678.34
2024-01-03T00:59:52.549Z,94668.94
2024-01-03T01:02:19.567Z,94681.72
2024-01-03T01:04:46.806Z,94677.38
2024-01-03T01:07:14.194Z,94678.34
2024-01-03T01:09:42.530Z,94676.09
2024-01-03T01:12:09.571Z,94670.75
2024-01-03T01:14:36.465Z,94660.00
2024-01-03T01:17:03.765Z,94662.38
2024-01-03T01:19:30.864Z,94674.28
2024-01-03T01:21:57.978Z,94674.06
2024-01-03T01:24:24.928Z,94668.38
2024-01-03T01:26:53.587Z,94661.66
2024-01-03T01:29:21.979Z,94657.25
2024-01-03T01:31:48.890Z,94653.06
2024-01-03T01:34:16.060Z,94658.44
2024-01-03T01:36:43.074Z,94653.28
2024-01-03T01:39:09.935Z,94656.13
2024-01-03T01:41:36.929Z,94653.19
2024-01-03T01:44:05.933Z,94659.91
2024-01-03T01:46:34.188Z,94661.25
2024-01-03T01:49:01.420Z,94657.03
2024-01-03T01:51:29.236Z,94647.47
2024-01-03T01:53:56.798Z,94663.91
2024-01-03T01:56:24.331Z,94667.34
2024-01-03T01:58:51.496Z,94659.25
2024-01-03T02:01:22.410Z,94655.81
2024-01-03T02:03:51.536Z,94652.75
2024-01-03T02:06:21.685Z,94654.44
2024-01-03T02:08:48.813Z,94654.31
2024-01-03T02:11:15.817Z,94652.94
2024-01-03T02:13:44.558Z,94650.56
2024-01-03T02:16:14.051Z,94646.22
2024-01-03T02:18:45.266Z,94654.50
2024-01-03T02:21:15.434Z,94651.00
2024-01-03T02:23:42.548Z,94647.34
2024-01-03T02:26:17.900Z,94640.16
2024-01-03T02:28:52.866Z,94650.34
2024-01-03T02:31:19.785Z,94642.34
2024-01-03T02:33:46.834Z,94634.47
2024-01-03T02:36:15.902Z,94637.59
2024-01-03T02:38:49.404Z,94643.94
2024-01-03T02:41:16.628Z,94644.59
2024-01-03T02:43:43.808Z,94646.00
2024-01-03T02:46:10.845Z,94653.28
2024-01-03T02:48:39.940Z,94656.16
2024-01-03T02:51:06.982Z,94659.75
2024-01-03T02:53:35.372Z,94662.41
2024-01-03T02:56:02.217Z,94653.88
2024-01-03T02:58:29.271Z,94664.94
2024-01-03T03:00:56.145Z,94672.56
2024-01-03T03:03:23.067Z,94668.78
2024-01-03T03:05:50.081Z,94673.94
2024-01-03T03:08:17.144Z,94681.03
2024-01-03T03:10:45.475Z,94669.25
2024-01-03T03:13:12.368Z,94665.28
2024-01-03T03:15:39.255Z,94672.69
2024-01-03T03:18:06.588Z,94673.50
2024-01-03T03:20:33.827Z,94679.06
2024-01-03T03:23:00.968Z,94683.41
2024-01-03T03:25:27.920Z,94677.34
2024-01-03T03:27:56.163Z,94684.66
2024-01-03T03:30:23.117Z,94687.84
2024-01-03T03:32:50.210Z,94679.53
2024-01-03T03:35:17.272Z,94693.34
2024-01-03T03:37:44.228Z,94693.34
2024-01-03T03:40:11.817Z,94692.88
2024-01-03T03:42:38.875Z,94692.88
2024-01-03T03:45:08.708Z,94691.88
2024-01-03T03:47:35.790Z,94697.63
2024-01-03T03:50:02.664Z,94699.25
2024-01-03T03:52:29.641Z,94698.03
2024-01-03T03:54:56.592Z,94695.50
2024-01-03T03:57:23.474Z,94694.94
2024-01-03T03:59:50.477Z,94696.53
2024-01-03T04:02:18.954Z,94696.41
2024-01-03T04:04:46.097Z,94705.66
2024-01-03T04:07:13.054Z,94706.00
2024-01-03T04:09:39.973Z,94696.88
2024-01-03T04:12:07.214Z,94696.44
2024-01-03T04:14:34.240Z,94699.97
2024-01-03T04:17:01.361Z,94705.09
2024-01-03T04:19:29.706Z,94700.63
2024-01-03T04:21:57.115Z,94697.22
2024-01-03T04:24:24.063Z,94714.56
2024-01-03T04:26:51.439Z,94717.09
2024-01-03T04:29:18.458Z,94704.53
2024-01-03T04:31:45.722Z,94713.09
2024-01-03T04:34:12.729Z,94718.81
2024-01-03T04:36:41.219Z,94713.06
2024-01-03T04:39:08.092Z,94712.28
2024-01-03T04:41:35.094Z,94710.69
2024-01-03T04:44:02.093Z,94714.69
2024-01-03T04:46:29.056Z,94731.34
2024-01-03T04:48:56.082Z,94717.63
2024-01-03T04:51:23.215Z,94720.38
2024-01-03T04:53:51.561Z,94727.59
2024-01-03T04:56:19.054Z,94724.97
2024-01-03T04:58:46.018Z,94722.34
2024-01-03T05:01:13.014Z,94721.84
2024-01-03T05:03:40.052Z,94731.00
2024-01-03T05:06:07.176Z,94729.50
2024-01-03T05:08:34.186Z,94733.03
2024-01-03T05:11:02.708Z,94724.50
2024-01-03T05:13:29.686Z,94724.16
2024-01-03T05:15:56.959Z,94714.09
2024-01-03T05:18:24.049Z,94711.13
2024-01-03T05:20:51.172Z,94716.75
2024-01-03T05:23:18.171Z,94711.03
2024-01-03T05:25:45.090Z,94712.63
2024-01-03T05:28:13.472Z,94722.44
2024-01-03T05:30:40.511Z,94712.75
2024-01-03T05:33:07.876Z,94709.31
2024-01-03T05:35:34.993Z,94712.41
2024-01-03T05:38:01.987Z,94720.97
2024-01-03T05:40:29.010Z,94706.59
2024-01-03T05:42:56.072Z,94712.41
2024-01-03T05:45:24.506Z,94724.81
2024-01-03T05:47:51.688Z,94728.84
2024-01-03T05:50:19.053Z,94725.97
2024-01-03T05:52:46.228Z,94725.19
2024-01-03T05:55:13.249Z,94731.22
2024-01-03T05:57:40.195Z,94733.03
2024-01-03T06:00:08.259Z,94729.06
2024-01-03T06:02:36.601Z,94738.66
2024-01-03T06:05:03.729Z,94736.25
2024-01-03T06:07:30.785Z,94738.19
2024-01-03T06:09:57.678Z,94744.59
2024-01-03T06:12:24.616Z,94746.06
2024-01-03T06:14:51.662Z,94752.00
2024-01-03T06:17:18.773Z,94752.13
2024-01-03T06:19:47.153Z,94752.31
2024-01-03T06:22:14.218Z,94751.06
2024-01-03T06:24:41.182Z,94751.53
2024-01-03T06:27:08.198Z,94759.09
2024-01-03T06:29:36.045Z,94765.25
2024-01-03T06:32:05.661Z,94774.34
2024-01-03T06:34:32.676Z,94777.56
2024-01-03T06:37:00.989Z,94780.84
2024-01-03T06:39:27.905Z,94783.25
2024-01-03T06:41:55.078Z,94789.63
2024-01-03T06:44:22.066Z,94792.06
2024-01-03T06:46:48.981Z,94791.03
2024-01-03T06:49:16.122Z,94786.19
2024-01-03T06:51:43.184Z,94787.47
2024-01-03T06:54:11.533Z,94788.06
2024-01-03T06:56:38.501Z,94791.25
2024-01-03T06:59:05.525Z,94788.88
2024-01-03T07:01:32.470Z,94785.34
2024-01-03T07:03:59.442Z,94793.06
2024-01-03T07:06:26.404Z,94792.97
2024-01-03T07:08:53.457Z,94790.13
2024-01-03T07:11:21.958Z,94780.66
2024-01-03T07:13:48.916Z,94786.16
2024-01-03T07:16:15.985Z,94790.47
2024-01-03T07:18:43.201Z,94798.00
2024-01-03T07:21:10.243Z,94797.31
2024-01-03T07:23:37.335Z,94793.88
2024-01-03T07:26:04.319Z,94794.94
2024-01-03T07:28:32.877Z,94790.47
2024-01-03T07:30:59.821Z,94789.44
2024-01-03T07:33:27.128Z,94786.00
2024-01-03T07:35:54.349Z,94788.06
2024-01-03T07:38:21.319Z,94796.19
2024-01-03T07:40:48.291Z,94791.16
2024-01-03T07:43:15.289Z,94783.28
2024-01-03T07:45:43.818Z,94784.44
2024-01-03T07:48:11.276Z,94784.53
2024-01-03T07:50:38.503Z,94801.44
2024-01-03T07:53:05.443Z,94799.28
2024-01-03T07:55:32.428Z,94789.69
2024-01-03T07:57:59.398Z,94803.63
2024-01-03T08:00:26.268Z,94800.03
2024-01-03T08:02:54.770Z,94807.19
2024-01-03T08:05:22.084Z,94785.00
2024-01-03T08:07:49.200Z,94785.72
2024-01-03T08:10:16.229Z,94796.66
2024-01-03T08:12:43.514Z,94780.16
2024-01-03T08:15:10.715Z,94789.94
2024-01-03T08:17:37.737Z,94783.19
2024-01-03T08:20:07.907Z,94800.22
2024-01-03T08:22:35.140Z,94774.78
2024-01-03T08:25:02.084Z,94774.56
2024-01-03T08:27:29.011Z,94780.88
2024-01-03T08:29:56.287Z,94783.47
2024-01-03T08:32:26.302Z,94777.34
2024-01-03T08:34:53.332Z,94773.03
2024-01-03T08:37:23.528Z,94776.25
2024-01-03T08:39:50.945Z,94767.91
2024-01-03T08:42:17.934Z,94781.06
2024-01-03T08:44:44.930Z,94780.44
2024-01-03T08:47:14.119Z,94788.97
2024-01-03T08:49:43.647Z,94778.44
2024-01-03T08:52:10.662Z,94783.47
2024-01-03T08:54:38.959Z,94790.28
2024-01-03T08:57:05.989Z,94785.38
2024-01-03T08:59:33.020Z,94787.38
2024-01-03T09:01:59.889Z,94791.03
2024-01-03T09:04:26.786Z,94780.50
2024-01-03T09:06:54.114Z,94772.50
2024-01-03T09:09:21.079Z,94778.25
2024-01-03T09:11:49.806Z,94782.72
2024-01-03T09:14:16.759Z,94776.19
2024-01-03T09:16:43.768Z,94776.56
2024-01-03T09:19:11.079Z,94775.34
2024-01-03T09:21:44.622Z,94771.06
2024-01-03T09:24:11.728Z,94771.44
2024-01-03T09:26:38.856Z,94770.91
2024-01-03T09:29:07.262Z,94779.72
2024-01-03T09:31:34.140Z,94781.44
2024-01-03T09:34:01.287Z,94782.78
2024-01-03T09:36:29.020Z,94786.31
2024-01-03T09:38:56.804Z,94781.22
2024-01-03T09:41:25.092Z,94772.28
2024-01-03T09:43:53.238Z,94775.53
2024-01-03T09:46:22.123Z,94787.22
2024-01-03T09:48:49.826Z,94788.75
2024-01-03T09:51:17.628Z,94779.56
2024-01-03T09:53:46.858Z,94789.69
2024-01-03T09:56:13.921Z,94788.44
2024-01-03T09:58:41.298Z,94786.59
2024-01-03T10:01:08.677Z,94782.13
2024-01-03T10:03:37.072Z,94786.03
2024-01-03T10:06:10.556Z,94788.19
2024-01-03T10:08:39.246Z,94786.00
2024-01-03T10:11:20.262Z,94782.19
2024-01-03T10:13:48.917Z,94765.28
2024-01-03T10:16:23.332Z,94769.53
2024-01-03T10:19:08.868Z,94766.94
2024-01-03T10:21:36.469Z,94771.50
2024-01-03T10:24:03.869Z,94769.88
2024-01-03T10:26:30.920Z,94763.63
2024-01-03T10:29:09.180Z,94758.44
2024-01-03T10:31:36.140Z,94744.88
2024-01-03T10:34:05.013Z,94749.44
2024-01-03T10:36:33.879Z,94752.78
2024-01-03T10:39:02.980Z,94749.34
2024-01-03T10:41:31.029Z,94749.59
2024-01-03T10:44:00.102Z,94749.28
2024-01-03T10:46:27.407Z,94753.81
2024-01-03T10:48:54.737Z,94743.53
2024-01-03T10:51:28.033Z,94743.66
2024-01-03T10:53:57.132Z,94751.25
2024-01-03T10:56:24.366Z,94752.53
2024-01-03T10:58:52.254Z,94751.00
2024-01-03T11:01:26.096Z,94751.09
2024-01-03T11:04:04.530Z,94737.44
2024-01-03T11:06:41.091Z,94726.81
2024-01-03T11:09:09.413Z,94728.75
2024-01-03T11:11:37.984Z,94730.81
2024-01-03T11:14:23.118Z,94730.44
2024-01-03T11:16:50.403Z,94736.16
2024-01-03T11:19:28.215Z,94738.03
2024-01-03T11:21:59.248Z,94730.66
2024-01-03T11:24:53.320Z,94735.50
2024-01-03T11:27:24.791Z,94731.88
2024-01-03T11:29:53.959Z,94734.25
2024-01-03T11:32:33.172Z,94720.16
2024-01-03T11:35:03.546Z,94715.81
2024-01-03T11:37:40.073Z,94712.50
2024-01-03T11:40:18.116Z,94721.34
2024-01-03T11:42:45.292Z,94718.56
2024-01-03T11:45:14.056Z,94718.88
2024-01-03T11:47:42.792Z,94705.72
2024-01-03T11:50:12.904Z,94713.47
2024-01-03T11:52:43.555Z,94704.28
2024-01-03T11:55:12.403Z,94695.81
2024-01-03T11:57:43.543Z,94710.03
2024-01-03T12:00:13.143Z,94696.69
2024-01-03T12:02:52.958Z,94703.22
2024-01-03T12:05:20.442Z,94695.41
2024-01-03T12:07:52.658Z,94696.72
2024-01-03T12:10:21.607Z,94684.22
2024-01-03T12:12:49.419Z,94686.25
2024-01-03T12:15:37.481Z,94685.69
2024-01-03T12:18:10.543Z,94688.59
2024-01-03T12:20:37.880Z,94671.69
2024-01-03T12:23:11.517Z,94667.91
2024-01-03T12:25:39.017Z,94667.97
2024-01-03T12:28:06.548Z,94659.59
2024-01-03T12:30:33.825Z,94657.31
2024-01-03T12:33:09.279Z,94672.16
2024-01-03T12:35:36.712Z,94651.06
2024-01-03T12:38:05.179Z,94654.75
2024-01-03T12:40:33.692Z,94637.97
2024-01-03T12:43:00.651Z,94643.03
2024-01-03T12:45:27.725Z,94634.03
2024-01-03T12:47:54.996Z,94621.09
2024-01-03T12:50:23.052Z,94618.44
2024-01-03T12:52:50.149Z,94626.06
2024-01-03T12:55:17.192Z,94623.97
2024-01-03T12:57:45.937Z,94623.78
2024-01-03T13:00:14.070Z,94628.72
2024-01-03T13:02:41.127Z,94629.94
2024-01-03T13:05:08.925Z,94609.31
2024-01-03T13:07:36.010Z,94600.53
2024-01-03T13:10:03.168Z,94597.09
2024-01-03T13:12:30.362Z,94577.94
2024-01-03T13:14:58.776Z,94584.88
2024-01-03T13:17:26.117Z,94578.53
2024-01-03T13:19:53.170Z,94557.25
2024-01-03T13:22:20.148Z,94554.63
2024-01-03T13:24:47.899Z,94546.63
2024-01-03T13:27:15.152Z,94558.25
2024-01-03T13:29:42.178Z,94555.06
2024-01-03T13:32:10.594Z,94549.09
2024-01-03T13:34:37.846Z,94547.34
2024-01-03T13:37:05.725Z,94548.34
2024-01-03T13:39:32.663Z,94549.13
2024-01-03T13:42:00.072Z,94560.16
2024-01-03T13:44:27.318Z,94565.03
2024-01-03T13:46:54.330Z,94574.69
2024-01-03T13:49:23.351Z,94560.97
2024-01-03T13:51:50.588Z,94564.72
2024-01-03T13:54:17.821Z,94566.31
2024-01-03T13:56:44.905Z,94564.03
2024-01-03T13:59:12.016Z,94565.03
2024-01-03T14:01:38.995Z,94554.84
2024-01-03T14:04:06.170Z,94564.09
2024-01-03T14:06:34.920Z,94566.88
2024-01-03T14:09:03.843Z,94556.94
2024-01-03T14:11:31.788Z,94550.72
2024-01-03T14:13:58.852Z,94544.19
2024-01-03T14:16:25.831Z,94534.47
2024-01-03T14:18:52.864Z,94531.09
2024-01-03T14:21:19.899Z,94545.75
2024-01-03T14:23:48.824Z,94547.94
2024-01-03T14:26:15.890Z,94546.31
2024-01-03T14:28:42.830Z,94543.44
2024-01-03T14:31:09.905Z,94530.19
2024-01-03T14:33:37.160Z,94533.38
2024-01-03T14:36:04.757Z,94524.69
2024-01-03T14:38:32.334Z,94518.22
2024-01-03T14:41:01.329Z,94524.41
2024-01-03T14:43:28.224Z,94504.50
2024-01-03T14:45:55.173Z,94521.41
2024-01-03T14:48:22.279Z,94517.25
2024-01-03T14:50:49.492Z,94512.66
2024-01-03T14:53:16.470Z,94504.44
2024-01-03T14:55:43.632Z,94507.63
2024-01-03T14:58:11.958Z,94513.72
2024-01-03T15:00:38.994Z,94514.72
2024-01-03T15:03:10.460Z,94498.91
2024-01-03T15:05:38.834Z,94494.00
2024-01-03T15:08:09.885Z,94492.94
2024-01-03T15:10:38.375Z,94496.34
2024-01-03T15:13:05.450Z,94492.78
2024-01-03T15:15:33.919Z,94479.53
2024-01-03T15:18:01.074Z,94487.44
2024-01-03T15:20:28.232Z,94476.63
2024-01-03T15:22:55.181Z,94480.91
2024-01-03T15:25:22.315Z,94482.81
2024-01-03T15:27:49.452Z,94464.94
2024-01-03T15:30:16.701Z,94457.38
2024-01-03T15:32:45.264Z,94452.88
2024-01-03T15:35:12.602Z,94455.25
2024-01-03T15:37:39.601Z,94460.66
2024-01-03T15:40:07.735Z,94448.09
2024-01-03T15:42:34.699Z,94454.69
2024-01-03T15:45:01.969Z,94450.47
2024-01-03T15:47:29.317Z,94452.94
2024-01-03T15:49:57.925Z,94461.78
2024-01-03T15:52:25.040Z,94457.19
2024-01-03T15:54:51.918Z,94457.13
2024-01-03T15:57:19.137Z,94445.06
2024-01-03T15:59:46.497Z,94445.38
2024-01-03T16:02:13.708Z,94434.88
2024-01-03T16:04:40.612Z,94452.16
2024-01-03T16:07:08.949Z,94451.22
2024-01-03T16:09:35.928Z,94471.88
2024-01-03T16:12:03.449Z,94461.78
2024-01-03T16:14:30.527Z,94474.03
2024-01-03T16:16:57.585Z,94462.34
2024-01-03T16:19:24.683Z,94467.94
2024-01-03T16:21:52.248Z,94462.84
2024-01-03T16:24:20.653Z,94465.28
2024-01-03T16:26:48.969Z,94459.81
2024-01-03T16:29:16.268Z,94449.00
2024-01-03T16:31:53.506Z,94444.56
2024-01-03T16:34:21.250Z,94447.34
2024-01-03T16:36:48.306Z,94458.03
2024-01-03T16:39:15.459Z,94460.91
2024-01-03T16:41:43.989Z,94455.16
2024-01-03T16:44:10.933Z,94450.25
2024-01-03T16:46:37.822Z,94432.16
2024-01-03T16:49:05.252Z,94419.50
2024-01-03T16:51:32.535Z,94412.91
2024-01-03T16:53:59.498Z,94418.84
2024-01-03T16:56:26.472Z,94427.25
2024-01-03T16:58:55.136Z,94431.47
2024-01-03T17:01:27.856Z,94429.50
2024-01-03T17:03:55.355Z,94437.56
2024-01-03T17:06:22.396Z,94453.53
2024-01-03T17:08:50.782Z,94456.00
2024-01-03T17:11:23.247Z,94460.78
2024-01-03T17:13:50.355Z,94453.63
2024-01-03T17:16:19.203Z,94444.78
2024-01-03T17:18:46.495Z,94459.28
2024-01-03T17:21:14.808Z,94442.94
2024-01-03T17:23:42.044Z,94438.25
2024-01-03T17:26:09.198Z,94452.09
2024-01-03T17:28:36.560Z,94440.66
2024-01-03T17:31:07.183Z,94443.16
2024-01-03T17:33:36.386Z,94464.19
2024-01-03T17:36:07.862Z,94487.19
2024-01-03T17:38:36.128Z,94496.50
2024-01-03T17:41:03.857Z,94508.31
2024-01-03T17:43:31.131Z,94519.06
2024-01-03T17:45:58.102Z,94542.88
2024-01-03T17:48:25.316Z,94574.28
2024-01-03T17:50:54.063Z,94584.47
2024-01-03T17:53:21.216Z,94613.47
2024-01-03T17:55:48.133Z,94601.03
2024-01-03T17:58:15.206Z,94611.97
2024-01-03T18:00:42.269Z,94625.44
2024-01-03T18:03:09.268Z,94637.47
2024-01-03T18:05:36.360Z,94663.06
2024-01-03T18:08:05.316Z,94694.91
2024-01-03T18:10:32.364Z,94714.44
2024-01-03T18:12:59.262Z,94717.72
2024-01-03T18:15:26.306Z,94696.41
2024-01-03T18:17:54.343Z,94715.94
2024-01-03T18:20:22.533Z,94721.25
2024-01-03T18:22:49.547Z,94707.28
2024-01-03T18:25:19.120Z,94730.25
2024-01-03T18:27:46.364Z,94727.03
2024-01-03T18:30:14.262Z,94717.66
2024-01-03T18:32:41.671Z,94709.84
2024-01-03T18:35:09.041Z,94715.66
2024-01-03T18:37:36.616Z,94722.41
2024-01-03T18:40:04.289Z,94712.91
2024-01-03T18:42:32.875Z,94700.03
2024-01-03T18:45:04.766Z,94704.22
2024-01-03T18:47:32.752Z,94707.69
2024-01-03T18:49:59.803Z,94700.06
2024-01-03T18:52:26.841Z,94688.44
2024-01-03T18:54:53.865Z,94696.31
2024-01-03T18:57:20.897Z,94695.88
2024-01-03T18:59:49.510Z,94696.19
2024-01-03T19:02:16.505Z,94704.97
2024-01-03T19:04:44.614Z,94701.09
2024-01-03T19:07:11.724Z,94711.84
2024-01-03T19:09:38.721Z,94706.59
2024-01-03T19:12:06.698Z,94695.63
2024-01-03T19:14:34.101Z,94700.00
2024-01-03T19:17:02.589Z,94718.38
2024-01-03T19:19:29.757Z,94707.03
2024-01-03T19:21:56.813Z,94712.19
2024-01-03T19:24:23.828Z,94723.28
2024-01-03T19:26:50.863Z,94722.28
2024-01-03T19:29:17.907Z,94710.81
2024-01-03T19:31:44.968Z,94718.00
2024-01-03T19:34:13.742Z,94710.44
2024-01-03T19:36:40.784Z,94703.16
2024-01-03T19:39:07.902Z,94708.19
2024-01-03T19:41:36.380Z,94707.72
2024-01-03T19:44:03.333Z,94708.75
2024-01-03T19:46:30.387Z,94734.88
2024-01-03T19:48:57.594Z,94750.16
2024-01-03T19:51:26.235Z,94766.97
2024-01-03T19:53:53.383Z,94774.16
2024-01-03T19:56:20.412Z,94797.94
2024-01-03T19:58:47.449Z,94793.34
2024-01-03T20:01:14.458Z,94799.16
2024-01-03T20:03:41.461Z,94806.28
2024-01-03T20:06:08.717Z,94788.22
2024-01-03T20:08:37.872Z,94794.03
2024-01-03T20:11:05.166Z,94803.13
2024-01-03T20:13:32.191Z,94815.22
2024-01-03T20:15:59.172Z,94804.78
2024-01-03T20:18:26.265Z,94802.06
2024-01-03T20:20:53.356Z,94806.97
2024-01-03T20:23:20.619Z,94791.88
2024-01-03T20:25:49.193Z,94779.44
2024-01-03T20:28:16.288Z,94794.03
2024-01-03T20:30:43.378Z,94817.88
2024-01-03T20:33:10.473Z,94824.88
2024-01-03T20:35:37.606Z,94817.63
2024-01-03T20:38:04.902Z,94835.69
2024-01-03T20:40:31.880Z,94842.88
2024-01-03T20:43:01.035Z,94833.94
2024-01-03T20:45:27.997Z,94828.81
2024-01-03T20:47:54.966Z,94833.75
2024-01-03T20:50:22.024Z,94827.78
2024-01-03T20:52:49.096Z,94840.31
2024-01-03T20:55:16.191Z,94832.56
2024-01-03T20:57:43.368Z,94836.44
2024-01-03T21:00:13.171Z,94845.09
2024-01-03T21:02:40.482Z,94844.66
2024-01-03T21:05:08.322Z,94847.56
2024-01-03T21:07:35.525Z,94862.72
2024-01-03T21:10:02.768Z,94860.06
2024-01-03T21:12:29.720Z,94857.47
2024-01-03T21:14:56.687Z,94864.81
2024-01-03T21:17:25.309Z,94856.13
2024-01-03T21:19:52.638Z,94861.41
2024-01-03T21:22:20.631Z,94864.75
2024-01-03T21:24:47.769Z,94851.19
2024-01-03T21:27:44.690Z,94865.53
2024-01-03T21:30:02.323Z,94859.63
2024-01-03T21:32:30.701Z,94873.19
2024-01-03T21:34:57.704Z,94864.47
2024-01-03T21:37:24.738Z,94872.38
2024-01-03T21:39:51.688Z,94865.16
2024-01-03T21:42:18.728Z,94861.66
2024-01-03T21:44:45.925Z,94857.38
2024-01-03T21:47:12.959Z,94882.47
2024-01-03T21:49:41.648Z,94881.91
2024-01-03T21:52:08.633Z,94895.25
2024-01-03T21:54:35.614Z,94903.47
2024-01-03T21:57:02.601Z,94905.16
2024-01-03T21:59:32.932Z,94899.56
2024-01-03T22:01:59.909Z,94893.91
2024-01-03T22:04:26.925Z,94896.78
2024-01-03T22:06:55.325Z,94907.06
2024-01-03T22:09:23.332Z,94907.09
2024-01-03T22:11:50.432Z,94920.25
2024-01-03T22:14:17.409Z,94905.41
2024-01-03T22:16:44.838Z,94902.78
2024-01-03T22:19:11.921Z,94895.34
2024-01-03T22:21:38.995Z,94895.25
2024-01-03T22:24:07.697Z,94910.66
2024-01-03T22:26:36.789Z,94904.00
2024-01-03T22:29:04.143Z,94897.19
2024-01-03T22:31:31.250Z,94910.78
2024-01-03T22:33:58.352Z,94904.25
2024-01-03T22:36:25.482Z,94921.47
2024-01-03T22:38:52.559Z,94914.97
2024-01-03T22:41:21.040Z,94918.94
2024-01-03T22:43:48.036Z,94913.28
2024-01-03T22:46:15.116Z,94906.81
2024-01-03T22:48:42.263Z,94908.78
2024-01-03T22:51:09.571Z,94910.00
2024-01-03T22:53:36.576Z,94903.25
2024-01-03T22:56:03.997Z,94919.53
2024-01-03T22:58:32.398Z,94911.75
2024-01-03T23:00:59.458Z,94911.84
2024-01-03T23:03:26.525Z,94904.28
2024-01-03T23:05:53.604Z,94914.31
2024-01-03T23:08:20.645Z,94914.09
2024-01-03T23:10:47.648Z,94919.91
2024-01-03T23:13:14.586Z,94916.81
2024-01-03T23:15:43.188Z,94914.06
2024-01-03T23:18:10.447Z,94917.19
2024-01-03T23:20:37.868Z,94920.09
2024-01-03T23:23:10.009Z,94915.63
2024-01-03T23:25:38.175Z,94920.69
2024-01-03T23:28:05.621Z,94923.97
2024-01-03T23:30:32.825Z,94928.56
2024-01-03T23:33:01.465Z,94928.75
2024-01-03T23:35:28.530Z,94923.38
2024-01-03T23:37:55.884Z,94925.25
2024-01-03T23:40:22.974Z,94930.78
2024-01-03T23:42:50.703Z,94929.19
2024-01-03T23:45:18.156Z,94934.78
2024-01-03T23:47:45.266Z,94934.47
2024-01-03T23:50:13.644Z,94932.78
2024-01-03T23:52:40.498Z,94934.19
2024-01-03T23:55:08.825Z,94932.09
2024-01-03T23:57:35.809Z,94931.81
